Iemanja 2 — FGF3556 — position and weather

sailwx.info

Track history (hours):
 
Tides and Currents Weather Stations Pressure Air Temp Water Temp Dewpoint Dewpoint Depression Visibility Wind Speed Wind Dir Waves Ship Positions

Iemanja 2

Last reported at 2017-Oct-19 09:07 UTC. Time now 2017-Nov-18 23:45 UTC.
Position N 38°36' W 009°30'.
Warning: this ship's position is 30 days out of date.

Length 14 m.

Type: Sailing vessel. MMSI: 227713130.

Date/timePositionNaut miles runAvg speedWind from/ knotsBaromVisibWave heightAir tempDewpointWater temp
2017-Oct-19 09:07N 38°36' W 009°30'1 5.4
2017-Oct-19 08:53N 38°37' W 009°29'2 5.8
2017-Oct-19 08:30N 38°38' W 009°27'3 5.6
2017-Oct-19 07:58N 38°41' W 009°25'0 0.7
2017-Oct-19 07:28N 38°41' W 009°25'  
2017-Oct-14 14:58N 38°41' W 009°25'0 0.6
2017-Oct-14 14:30N 38°42' W 009°25'0 0.0
2017-Oct-14 13:57N 38°42' W 009°25'1 1.3
2017-Oct-14 13:29N 38°41' W 009°26'6 4.9
2017-Oct-14 12:12N 38°46' W 009°31'1 5.4
2017-Oct-14 12:00N 38°47' W 009°31'3 5.5
2017-Oct-14 11:30N 38°50' W 009°31'3 5.6
2017-Oct-14 11:00N 38°52' W 009°31'3 6.0
2017-Oct-14 10:30N 38°55' W 009°31'3 5.8
2017-Oct-14 10:00N 38°58' W 009°30'3 5.9
2017-Oct-14 09:30N 39°01' W 009°30'3 6.0
2017-Oct-14 09:00N 39°04' W 009°29'3 5.0
2017-Oct-14 08:30N 39°07' W 009°29'127 5.8
2017-Oct-13 10:43N 41°09' W 008°42'1 5.7
2017-Oct-13 10:30N 41°10' W 008°42'1 2.7
2017-Oct-13 10:00N 41°11' W 008°42'0 0.0
2017-Oct-13 09:30N 41°11' W 008°42'0 0.0
2017-Oct-13 09:00N 41°11' W 008°42'0 0.0
2017-Oct-13 08:30N 41°11' W 008°42'0 0.0
2017-Oct-13 08:00N 41°11' W 008°42'0 0.0
2017-Oct-12 18:18N 41°11' W 008°42'0 0.0
2017-Oct-12 18:00N 41°11' W 008°42'0 0.0
2017-Oct-12 17:30N 41°11' W 008°42'0 0.0
2017-Oct-12 17:00N 41°11' W 008°42'0 0.0
2017-Oct-12 16:30N 41°11' W 008°42'0 0.0
2017-Oct-12 16:00N 41°11' W 008°42'0 0.0
2017-Oct-12 15:30N 41°11' W 008°42'0 0.0
2017-Oct-12 15:00N 41°11' W 008°42'0 0.0
2017-Oct-12 14:30N 41°11' W 008°42'0 0.0
2017-Oct-12 14:00N 41°11' W 008°42'0 0.0
2017-Oct-12 13:30N 41°11' W 008°42'0 0.0
2017-Oct-12 13:00N 41°11' W 008°42'0 0.0
2017-Oct-12 12:30N 41°11' W 008°42'0 0.0
2017-Oct-12 11:54N 41°11' W 008°42'0 0.0
2017-Oct-12 11:30N 41°11' W 008°42'0 0.0
2017-Oct-12 11:00N 41°11' W 008°42'0 0.0
2017-Oct-12 10:30N 41°11' W 008°42'0 0.0
2017-Oct-12 10:00N 41°11' W 008°42'0 0.0
2017-Oct-12 09:30N 41°11' W 008°42'0 0.0
2017-Oct-12 09:00N 41°11' W 008°42'0 0.0
2017-Oct-12 08:30N 41°11' W 008°42'0 0.5
2017-Oct-12 08:01N 41°11' W 008°42'2 3.4
2017-Oct-12 07:30N 41°11' W 008°45'  
Track history (hours):
 
Tides and Currents Weather Stations Pressure Air Temp Water Temp Dewpoint Dewpoint Depression Visibility Wind Speed Wind Dir Waves Ship Positions

Iemanja 2

Last reported at 2017-Oct-19 09:07 UTC. Time now 2017-Nov-18 23:45 UTC.
Position N 38°36' W 009°30'.
Warning: this ship's position is 30 days out of date.

Length 14 m.

Type: Sailing vessel. MMSI: 227713130.

Date/timePositionNaut miles runAvg speedWind from/ knotsBaromVisibWave heightAir tempDewpointWater temp
2017-Oct-19 09:07N 38°36' W 009°30'1 5.4
2017-Oct-19 08:53N 38°37' W 009°29'2 5.8
2017-Oct-19 08:30N 38°38' W 009°27'3 5.6
2017-Oct-19 07:58N 38°41' W 009°25'0 0.7
2017-Oct-19 07:28N 38°41' W 009°25'  
2017-Oct-14 14:58N 38°41' W 009°25'0 0.6
2017-Oct-14 14:30N 38°42' W 009°25'0 0.0
2017-Oct-14 13:57N 38°42' W 009°25'1 1.3
2017-Oct-14 13:29N 38°41' W 009°26'6 4.9
2017-Oct-14 12:12N 38°46' W 009°31'1 5.4
2017-Oct-14 12:00N 38°47' W 009°31'3 5.5
2017-Oct-14 11:30N 38°50' W 009°31'3 5.6
2017-Oct-14 11:00N 38°52' W 009°31'3 6.0
2017-Oct-14 10:30N 38°55' W 009°31'3 5.8
2017-Oct-14 10:00N 38°58' W 009°30'3 5.9
2017-Oct-14 09:30N 39°01' W 009°30'3 6.0
2017-Oct-14 09:00N 39°04' W 009°29'3 5.0
2017-Oct-14 08:30N 39°07' W 009°29'127 5.8
2017-Oct-13 10:43N 41°09' W 008°42'1 5.7
2017-Oct-13 10:30N 41°10' W 008°42'1 2.7
2017-Oct-13 10:00N 41°11' W 008°42'0 0.0
2017-Oct-13 09:30N 41°11' W 008°42'0 0.0
2017-Oct-13 09:00N 41°11' W 008°42'0 0.0
2017-Oct-13 08:30N 41°11' W 008°42'0 0.0
2017-Oct-13 08:00N 41°11' W 008°42'0 0.0
2017-Oct-12 18:18N 41°11' W 008°42'0 0.0
2017-Oct-12 18:00N 41°11' W 008°42'0 0.0
2017-Oct-12 17:30N 41°11' W 008°42'0 0.0
2017-Oct-12 17:00N 41°11' W 008°42'0 0.0
2017-Oct-12 16:30N 41°11' W 008°42'0 0.0
2017-Oct-12 16:00N 41°11' W 008°42'0 0.0
2017-Oct-12 15:30N 41°11' W 008°42'0 0.0
2017-Oct-12 15:00N 41°11' W 008°42'0 0.0
2017-Oct-12 14:30N 41°11' W 008°42'0 0.0
2017-Oct-12 14:00N 41°11' W 008°42'0 0.0
2017-Oct-12 13:30N 41°11' W 008°42'0 0.0
2017-Oct-12 13:00N 41°11' W 008°42'0 0.0
2017-Oct-12 12:30N 41°11' W 008°42'0 0.0
2017-Oct-12 11:54N 41°11' W 008°42'0 0.0
2017-Oct-12 11:30N 41°11' W 008°42'0 0.0
2017-Oct-12 11:00N 41°11' W 008°42'0 0.0
2017-Oct-12 10:30N 41°11' W 008°42'0 0.0
2017-Oct-12 10:00N 41°11' W 008°42'0 0.0
2017-Oct-12 09:30N 41°11' W 008°42'0 0.0
2017-Oct-12 09:00N 41°11' W 008°42'0 0.0
2017-Oct-12 08:30N 41°11' W 008°42'0 0.5
2017-Oct-12 08:01N 41°11' W 008°42'2 3.4
2017-Oct-12 07:30N 41°11' W 008°45'  

Dump ship's entire track history